sensor_id;sensor_type;location;lat;lon;timestamp;pressure;altitude;pressure_sealevel;temperature
67822;BMP180;54434;50.096;20.082;2022-08-19T00:00:16;98457.20;;;20.52
67822;BMP180;54434;50.096;20.082;2022-08-19T00:03:09;98459.00;;;20.50
67822;BMP180;54434;50.096;20.082;2022-08-19T00:05:45;98456.40;;;20.50
67822;BMP180;54434;50.096;20.082;2022-08-19T00:08:21;98457.80;;;20.40
67822;BMP180;54434;50.096;20.082;2022-08-19T00:10:57;98454.60;;;20.40
67822;BMP180;54434;50.096;20.082;2022-08-19T00:13:33;98455.80;;;20.40
67822;BMP180;54434;50.096;20.082;2022-08-19T00:16:10;98454.00;;;20.40
67822;BMP180;54434;50.096;20.082;2022-08-19T00:18:46;98450.40;;;20.30
67822;BMP180;54434;50.096;20.082;2022-08-19T00:21:22;98452.80;;;20.30
67822;BMP180;54434;50.096;20.082;2022-08-19T00:23:59;98450.60;;;20.30
67822;BMP180;54434;50.096;20.082;2022-08-19T00:26:36;98452.20;;;20.26
67822;BMP180;54434;50.096;20.082;2022-08-19T00:29:17;98450.60;;;20.20
67822;BMP180;54434;50.096;20.082;2022-08-19T00:32:00;98452.00;;;20.20
67822;BMP180;54434;50.096;20.082;2022-08-19T00:34:42;98454.80;;;20.20
67822;BMP180;54434;50.096;20.082;2022-08-19T00:37:22;98456.60;;;20.18
67822;BMP180;54434;50.096;20.082;2022-08-19T00:40:07;98458.20;;;20.10
67822;BMP180;54434;50.096;20.082;2022-08-19T00:42:44;98450.00;;;20.10
67822;BMP180;54434;50.096;20.082;2022-08-19T00:45:27;98451.80;;;20.00
67822;BMP180;54434;50.096;20.082;2022-08-19T00:48:11;98448.00;;;20.00
67822;BMP180;54434;50.096;20.082;2022-08-19T00:50:52;98448.60;;;20.00
67822;BMP180;54434;50.096;20.082;2022-08-19T00:53:33;98448.20;;;20.00
67822;BMP180;54434;50.096;20.082;2022-08-19T00:56:10;98451.60;;;19.90
67822;BMP180;54434;50.096;20.082;2022-08-19T00:58:46;98453.00;;;19.90
67822;BMP180;54434;50.096;20.082;2022-08-19T01:01:22;98441.20;;;19.90
67822;BMP180;54434;50.096;20.082;2022-08-19T01:03:58;98442.60;;;19.82
67822;BMP180;54434;50.096;20.082;2022-08-19T01:06:37;98440.20;;;19.80
67822;BMP180;54434;50.096;20.082;2022-08-19T01:09:14;98440.60;;;19.80
67822;BMP180;54434;50.096;20.082;2022-08-19T01:11:50;98441.80;;;19.70
67822;BMP180;54434;50.096;20.082;2022-08-19T01:14:27;98441.80;;;19.66
67822;BMP180;54434;50.096;20.082;2022-08-19T01:17:05;98445.60;;;19.60
67822;BMP180;54434;50.096;20.082;2022-08-19T01:19:45;98441.40;;;19.56
67822;BMP180;54434;50.096;20.082;2022-08-19T01:22:31;98431.80;;;19.50
67822;BMP180;54434;50.096;20.082;2022-08-19T01:25:11;98423.20;;;19.40
67822;BMP180;54434;50.096;20.082;2022-08-19T01:27:51;98426.20;;;19.30
67822;BMP180;54434;50.096;20.082;2022-08-19T01:30:34;98418.60;;;19.30
67822;BMP180;54434;50.096;20.082;2022-08-19T01:33:11;98418.40;;;19.20
67822;BMP180;54434;50.096;20.082;2022-08-19T01:35:47;98411.00;;;19.20
67822;BMP180;54434;50.096;20.082;2022-08-19T01:38:28;98411.40;;;19.10
67822;BMP180;54434;50.096;20.082;2022-08-19T01:41:08;98402.60;;;19.10
67822;BMP180;54434;50.096;20.082;2022-08-19T01:43:45;98399.20;;;19.10
67822;BMP180;54434;50.096;20.082;2022-08-19T01:46:42;98405.20;;;19.04
67822;BMP180;54434;50.096;20.082;2022-08-19T01:49:23;98403.60;;;19.00
67822;BMP180;54434;50.096;20.082;2022-08-19T01:52:00;98407.20;;;19.00
67822;BMP180;54434;50.096;20.082;2022-08-19T01:54:37;98412.20;;;19.00
67822;BMP180;54434;50.096;20.082;2022-08-19T01:57:15;98418.80;;;19.00
67822;BMP180;54434;50.096;20.082;2022-08-19T01:59:51;98413.80;;;18.90
67822;BMP180;54434;50.096;20.082;2022-08-19T02:02:28;98413.00;;;18.90
67822;BMP180;54434;50.096;20.082;2022-08-19T02:05:04;98411.80;;;18.80
67822;BMP180;54434;50.096;20.082;2022-08-19T02:07:45;98411.80;;;18.80
67822;BMP180;54434;50.096;20.082;2022-08-19T02:10:23;98415.40;;;18.80
67822;BMP180;54434;50.096;20.082;2022-08-19T02:13:00;98415.40;;;18.70
67822;BMP180;54434;50.096;20.082;2022-08-19T02:15:36;98406.80;;;18.70
67822;BMP180;54434;50.096;20.082;2022-08-19T02:18:12;98406.00;;;18.68
67822;BMP180;54434;50.096;20.082;2022-08-19T02:20:49;98401.60;;;18.60
67822;BMP180;54434;50.096;20.082;2022-08-19T02:23:25;98402.40;;;18.60
67822;BMP180;54434;50.096;20.082;2022-08-19T02:26:02;98401.80;;;18.50
67822;BMP180;54434;50.096;20.082;2022-08-19T02:28:38;98397.80;;;18.50
67822;BMP180;54434;50.096;20.082;2022-08-19T02:31:22;98397.00;;;18.42
67822;BMP180;54434;50.096;20.082;2022-08-19T02:33:59;98396.40;;;18.40
67822;BMP180;54434;50.096;20.082;2022-08-19T02:36:36;98391.00;;;18.30
67822;BMP180;54434;50.096;20.082;2022-08-19T02:39:16;98389.40;;;18.28
67822;BMP180;54434;50.096;20.082;2022-08-19T02:41:52;98390.00;;;18.20
67822;BMP180;54434;50.096;20.082;2022-08-19T02:44:28;98388.80;;;18.20
67822;BMP180;54434;50.096;20.082;2022-08-19T02:47:07;98388.00;;;18.20
67822;BMP180;54434;50.096;20.082;2022-08-19T02:49:43;98388.20;;;18.12
67822;BMP180;54434;50.096;20.082;2022-08-19T02:52:19;98392.40;;;18.10
67822;BMP180;54434;50.096;20.082;2022-08-19T02:54:58;98394.60;;;18.10
67822;BMP180;54434;50.096;20.082;2022-08-19T02:57:35;98390.20;;;18.10
67822;BMP180;54434;50.096;20.082;2022-08-19T03:00:14;98394.80;;;18.10
67822;BMP180;54434;50.096;20.082;2022-08-19T03:02:50;98394.40;;;18.10
67822;BMP180;54434;50.096;20.082;2022-08-19T03:05:27;98397.60;;;18.10
67822;BMP180;54434;50.096;20.082;2022-08-19T03:08:23;98402.00;;;18.06
67822;BMP180;54434;50.096;20.082;2022-08-19T03:11:00;98408.00;;;18.00
67822;BMP180;54434;50.096;20.082;2022-08-19T03:13:36;98411.00;;;18.00
67822;BMP180;54434;50.096;20.082;2022-08-19T03:16:13;98416.60;;;18.00
67822;BMP180;54434;50.096;20.082;2022-08-19T03:18:50;98422.80;;;18.00
67822;BMP180;54434;50.096;20.082;2022-08-19T03:21:34;98422.60;;;18.00
67822;BMP180;54434;50.096;20.082;2022-08-19T03:24:12;98422.00;;;17.96
67822;BMP180;54434;50.096;20.082;2022-08-19T03:26:54;98419.60;;;17.90
67822;BMP180;54434;50.096;20.082;2022-08-19T03:29:33;98423.40;;;17.90
67822;BMP180;54434;50.096;20.082;2022-08-19T03:32:17;98423.00;;;17.90
67822;BMP180;54434;50.096;20.082;2022-08-19T03:35:08;98425.40;;;17.90
67822;BMP180;54434;50.096;20.082;2022-08-19T03:37:44;98421.40;;;17.88
67822;BMP180;54434;50.096;20.082;2022-08-19T03:40:21;98415.60;;;17.80
67822;BMP180;54434;50.096;20.082;2022-08-19T03:42:57;98412.00;;;17.80
67822;BMP180;54434;50.096;20.082;2022-08-19T03:45:33;98410.20;;;17.80
67822;BMP180;54434;50.096;20.082;2022-08-19T03:48:09;98417.20;;;17.88
67822;BMP180;54434;50.096;20.082;2022-08-19T03:50:46;98418.40;;;17.90
67822;BMP180;54434;50.096;20.082;2022-08-19T03:53:22;98413.00;;;17.90
67822;BMP180;54434;50.096;20.082;2022-08-19T03:55:59;98419.40;;;17.98
67822;BMP180;54434;50.096;20.082;2022-08-19T03:58:35;98422.40;;;18.00
67822;BMP180;54434;50.096;20.082;2022-08-19T04:01:17;98429.20;;;18.10
67822;BMP180;54434;50.096;20.082;2022-08-19T04:04:08;98431.40;;;18.18
67822;BMP180;54434;50.096;20.082;2022-08-19T04:06:46;98429.60;;;18.20
67822;BMP180;54434;50.096;20.082;2022-08-19T04:09:23;98423.00;;;18.30
67822;BMP180;54434;50.096;20.082;2022-08-19T04:12:00;98423.80;;;18.38
67822;BMP180;54434;50.096;20.082;2022-08-19T04:14:36;98418.80;;;18.40
67822;BMP180;54434;50.096;20.082;2022-08-19T04:17:14;98420.40;;;18.50
67822;BMP180;54434;50.096;20.082;2022-08-19T04:19:50;98418.00;;;18.60
67822;BMP180;54434;50.096;20.082;2022-08-19T04:22:26;98424.60;;;18.70
67822;BMP180;54434;50.096;20.082;2022-08-19T04:25:03;98419.60;;;18.90
67822;BMP180;54434;50.096;20.082;2022-08-19T04:27:39;98418.00;;;19.00
67822;BMP180;54434;50.096;20.082;2022-08-19T04:30:19;98421.40;;;19.20
67822;BMP180;54434;50.096;20.082;2022-08-19T04:32:57;98416.80;;;19.40
67822;BMP180;54434;50.096;20.082;2022-08-19T04:35:38;98426.20;;;19.70
67822;BMP180;54434;50.096;20.082;2022-08-19T04:38:17;98434.00;;;19.92
67822;BMP180;54434;50.096;20.082;2022-08-19T04:40:55;98424.60;;;20.12
67822;BMP180;54434;50.096;20.082;2022-08-19T04:43:47;98421.40;;;20.40
67822;BMP180;54434;50.096;20.082;2022-08-19T04:46:26;98419.40;;;20.60
67822;BMP180;54434;50.096;20.082;2022-08-19T04:49:25;98422.20;;;20.90
67822;BMP180;54434;50.096;20.082;2022-08-19T04:52:02;98433.20;;;21.10
67822;BMP180;54434;50.096;20.082;2022-08-19T04:54:38;98437.00;;;21.38
67822;BMP180;54434;50.096;20.082;2022-08-19T04:57:14;98439.80;;;21.70
67822;BMP180;54434;50.096;20.082;2022-08-19T04:59:55;98440.60;;;22.08
67822;BMP180;54434;50.096;20.082;2022-08-19T05:02:31;98448.60;;;22.46
67822;BMP180;54434;50.096;20.082;2022-08-19T05:05:09;98459.40;;;22.92
67822;BMP180;54434;50.096;20.082;2022-08-19T05:07:45;98464.80;;;23.30
67822;BMP180;54434;50.096;20.082;2022-08-19T05:10:22;98464.00;;;23.74
67822;BMP180;54434;50.096;20.082;2022-08-19T05:12:58;98462.60;;;24.14
67822;BMP180;54434;50.096;20.082;2022-08-19T05:15:35;98462.80;;;24.36
67822;BMP180;54434;50.096;20.082;2022-08-19T05:18:11;98468.80;;;24.70
67822;BMP180;54434;50.096;20.082;2022-08-19T05:21:13;98468.40;;;25.00
67822;BMP180;54434;50.096;20.082;2022-08-19T05:24:08;98468.40;;;25.30
67822;BMP180;54434;50.096;20.082;2022-08-19T05:26:48;98474.40;;;25.64
67822;BMP180;54434;50.096;20.082;2022-08-19T05:29:28;98478.80;;;25.90
67822;BMP180;54434;50.096;20.082;2022-08-19T05:32:11;98487.00;;;26.22
67822;BMP180;54434;50.096;20.082;2022-08-19T05:34:51;98488.60;;;26.50
67822;BMP180;54434;50.096;20.082;2022-08-19T05:37:29;98491.00;;;26.74
67822;BMP180;54434;50.096;20.082;2022-08-19T05:40:07;98490.20;;;26.90
67822;BMP180;54434;50.096;20.082;2022-08-19T05:42:44;98494.20;;;27.20
67822;BMP180;54434;50.096;20.082;2022-08-19T05:45:29;98497.00;;;27.54
67822;BMP180;54434;50.096;20.082;2022-08-19T05:48:06;98498.80;;;27.84
67822;BMP180;54434;50.096;20.082;2022-08-19T05:50:44;98494.40;;;27.94
67822;BMP180;54434;50.096;20.082;2022-08-19T05:53:21;98494.80;;;28.20
67822;BMP180;54434;50.096;20.082;2022-08-19T05:55:57;98498.00;;;28.30
67822;BMP180;54434;50.096;20.082;2022-08-19T05:58:33;98493.20;;;28.40
67822;BMP180;54434;50.096;20.082;2022-08-19T06:01:17;98494.00;;;28.70
67822;BMP180;54434;50.096;20.082;2022-08-19T06:03:53;98490.60;;;28.90
67822;BMP180;54434;50.096;20.082;2022-08-19T06:06:30;98491.60;;;29.10
67822;BMP180;54434;50.096;20.082;2022-08-19T06:09:10;98497.80;;;29.30
67822;BMP180;54434;50.096;20.082;2022-08-19T06:11:50;98494.80;;;29.40
67822;BMP180;54434;50.096;20.082;2022-08-19T06:14:34;98492.20;;;29.60
67822;BMP180;54434;50.096;20.082;2022-08-19T06:17:15;98487.80;;;29.66
67822;BMP180;54434;50.096;20.082;2022-08-19T06:19:52;98486.20;;;29.80
67822;BMP180;54434;50.096;20.082;2022-08-19T06:22:29;98491.00;;;29.90
67822;BMP180;54434;50.096;20.082;2022-08-19T06:25:07;98494.60;;;30.00
67822;BMP180;54434;50.096;20.082;2022-08-19T06:27:45;98490.80;;;30.10
67822;BMP180;54434;50.096;20.082;2022-08-19T06:30:41;98495.80;;;30.24
67822;BMP180;54434;50.096;20.082;2022-08-19T06:33:17;98495.20;;;30.40
67822;BMP180;54434;50.096;20.082;2022-08-19T06:35:53;98503.20;;;30.66
67822;BMP180;54434;50.096;20.082;2022-08-19T06:38:29;98501.80;;;30.76
67822;BMP180;54434;50.096;20.082;2022-08-19T06:41:07;98502.40;;;30.82
67822;BMP180;54434;50.096;20.082;2022-08-19T06:43:44;98505.40;;;31.00
67822;BMP180;54434;50.096;20.082;2022-08-19T06:46:21;98505.20;;;31.24
67822;BMP180;54434;50.096;20.082;2022-08-19T06:48:57;98507.40;;;31.40
67822;BMP180;54434;50.096;20.082;2022-08-19T06:51:35;98511.00;;;31.66
67822;BMP180;54434;50.096;20.082;2022-08-19T06:54:19;98511.60;;;32.20
67822;BMP180;54434;50.096;20.082;2022-08-19T06:56:58;98513.20;;;32.40
67822;BMP180;54434;50.096;20.082;2022-08-19T06:59:36;98516.80;;;32.60
67822;BMP180;54434;50.096;20.082;2022-08-19T07:02:13;98518.20;;;32.70
67822;BMP180;54434;50.096;20.082;2022-08-19T07:04:49;98516.00;;;32.90
67822;BMP180;54434;50.096;20.082;2022-08-19T07:07:26;98517.60;;;33.00
67822;BMP180;54434;50.096;20.082;2022-08-19T07:10:05;98534.20;;;33.20
67822;BMP180;54434;50.096;20.082;2022-08-19T07:12:41;98531.40;;;33.30
67822;BMP180;54434;50.096;20.082;2022-08-19T07:15:18;98541.40;;;33.58
67822;BMP180;54434;50.096;20.082;2022-08-19T07:17:55;98549.20;;;33.60
67822;BMP180;54434;50.096;20.082;2022-08-19T07:20:32;98547.00;;;33.80
67822;BMP180;54434;50.096;20.082;2022-08-19T07:23:08;98550.40;;;34.00
67822;BMP180;54434;50.096;20.082;2022-08-19T07:25:49;98550.00;;;34.00
67822;BMP180;54434;50.096;20.082;2022-08-19T07:28:26;98546.40;;;34.00
67822;BMP180;54434;50.096;20.082;2022-08-19T07:31:03;98543.00;;;34.06
67822;BMP180;54434;50.096;20.082;2022-08-19T07:33:40;98543.20;;;34.10
67822;BMP180;54434;50.096;20.082;2022-08-19T07:36:24;98546.60;;;34.24
67822;BMP180;54434;50.096;20.082;2022-08-19T07:39:09;98553.20;;;34.40
67822;BMP180;54434;50.096;20.082;2022-08-19T07:41:46;98555.20;;;34.32
67822;BMP180;54434;50.096;20.082;2022-08-19T07:44:23;98554.40;;;34.50
67822;BMP180;54434;50.096;20.082;2022-08-19T07:47:01;98553.00;;;34.50
67822;BMP180;54434;50.096;20.082;2022-08-19T07:49:38;98551.40;;;34.60
67822;BMP180;54434;50.096;20.082;2022-08-19T07:52:15;98552.20;;;34.50
67822;BMP180;54434;50.096;20.082;2022-08-19T07:54:52;98555.00;;;34.50
67822;BMP180;54434;50.096;20.082;2022-08-19T07:57:28;98558.20;;;34.60
67822;BMP180;54434;50.096;20.082;2022-08-19T08:00:08;98560.20;;;34.70
67822;BMP180;54434;50.096;20.082;2022-08-19T08:02:45;98563.80;;;34.90
67822;BMP180;54434;50.096;20.082;2022-08-19T08:05:23;98568.20;;;34.80
67822;BMP180;54434;50.096;20.082;2022-08-19T08:08:18;98576.60;;;34.88
67822;BMP180;54434;50.096;20.082;2022-08-19T08:11:22;98580.40;;;34.80
67822;BMP180;54434;50.096;20.082;2022-08-19T08:14:03;98579.20;;;34.80
67822;BMP180;54434;50.096;20.082;2022-08-19T08:16:41;98580.60;;;34.90
67822;BMP180;54434;50.096;20.082;2022-08-19T08:19:24;98579.00;;;34.88
67822;BMP180;54434;50.096;20.082;2022-08-19T08:22:03;98583.20;;;34.80
67822;BMP180;54434;50.096;20.082;2022-08-19T08:24:40;98589.00;;;34.84
67822;BMP180;54434;50.096;20.082;2022-08-19T08:27:16;98593.40;;;34.90
67822;BMP180;54434;50.096;20.082;2022-08-19T08:29:59;98593.20;;;35.10
67822;BMP180;54434;50.096;20.082;2022-08-19T08:32:37;98585.40;;;35.20
67822;BMP180;54434;50.096;20.082;2022-08-19T08:35:19;98584.40;;;35.10
67822;BMP180;54434;50.096;20.082;2022-08-19T08:37:57;98587.80;;;35.20
67822;BMP180;54434;50.096;20.082;2022-08-19T08:40:47;98580.60;;;35.00
67822;BMP180;54434;50.096;20.082;2022-08-19T08:43:34;98589.80;;;34.90
67822;BMP180;54434;50.096;20.082;2022-08-19T08:46:17;98583.80;;;34.90
67822;BMP180;54434;50.096;20.082;2022-08-19T08:49:18;98584.60;;;34.80
67822;BMP180;54434;50.096;20.082;2022-08-19T08:52:04;98582.40;;;34.70
67822;BMP180;54434;50.096;20.082;2022-08-19T08:54:45;98582.20;;;34.80
67822;BMP180;54434;50.096;20.082;2022-08-19T08:57:39;98580.20;;;34.82
67822;BMP180;54434;50.096;20.082;2022-08-19T09:00:24;98578.80;;;34.74
67822;BMP180;54434;50.096;20.082;2022-08-19T09:03:02;98582.00;;;34.70
67822;BMP180;54434;50.096;20.082;2022-08-19T09:05:57;98581.60;;;34.60
67822;BMP180;54434;50.096;20.082;2022-08-19T09:08:59;98579.00;;;34.50
67822;BMP180;54434;50.096;20.082;2022-08-19T09:11:59;98582.60;;;34.40
67822;BMP180;54434;50.096;20.082;2022-08-19T09:14:45;98577.40;;;34.30
67822;BMP180;54434;50.096;20.082;2022-08-19T09:17:30;98572.40;;;34.30
67822;BMP180;54434;50.096;20.082;2022-08-19T09:20:21;98569.40;;;34.30
67822;BMP180;54434;50.096;20.082;2022-08-19T09:23:00;98571.40;;;34.28
67822;BMP180;54434;50.096;20.082;2022-08-19T09:25:36;98573.60;;;34.20
67822;BMP180;54434;50.096;20.082;2022-08-19T09:28:15;98567.80;;;34.20
67822;BMP180;54434;50.096;20.082;2022-08-19T09:31:01;98564.20;;;34.16
67822;BMP180;54434;50.096;20.082;2022-08-19T09:33:37;98558.80;;;34.00
67822;BMP180;54434;50.096;20.082;2022-08-19T09:36:18;98559.00;;;34.00
67822;BMP180;54434;50.096;20.082;2022-08-19T09:39:09;98551.60;;;33.90
67822;BMP180;54434;50.096;20.082;2022-08-19T09:41:50;98553.20;;;33.70
67822;BMP180;54434;50.096;20.082;2022-08-19T09:44:27;98550.60;;;33.60
67822;BMP180;54434;50.096;20.082;2022-08-19T09:47:04;98555.20;;;33.60
67822;BMP180;54434;50.096;20.082;2022-08-19T09:49:42;98553.60;;;33.50
67822;BMP180;54434;50.096;20.082;2022-08-19T09:52:18;98555.00;;;33.50
67822;BMP180;54434;50.096;20.082;2022-08-19T09:54:57;98551.20;;;33.50
67822;BMP180;54434;50.096;20.082;2022-08-19T09:57:34;98554.40;;;33.60
67822;BMP180;54434;50.096;20.082;2022-08-19T10:00:13;98546.00;;;33.40
67822;BMP180;54434;50.096;20.082;2022-08-19T10:02:49;98545.20;;;33.44
67822;BMP180;54434;50.096;20.082;2022-08-19T10:05:26;98542.20;;;33.50
67822;BMP180;54434;50.096;20.082;2022-08-19T10:08:27;98540.80;;;33.50
67822;BMP180;54434;50.096;20.082;2022-08-19T10:11:06;98535.40;;;33.50
67822;BMP180;54434;50.096;20.082;2022-08-19T10:14:03;98537.60;;;33.50
67822;BMP180;54434;50.096;20.082;2022-08-19T10:16:42;98530.40;;;33.40
67822;BMP180;54434;50.096;20.082;2022-08-19T10:19:18;98528.80;;;33.40
67822;BMP180;54434;50.096;20.082;2022-08-19T10:22:01;98525.60;;;33.34
67822;BMP180;54434;50.096;20.082;2022-08-19T10:24:38;98532.80;;;33.30
67822;BMP180;54434;50.096;20.082;2022-08-19T10:27:15;98529.60;;;33.30
67822;BMP180;54434;50.096;20.082;2022-08-19T10:29:51;98529.00;;;33.30
67822;BMP180;54434;50.096;20.082;2022-08-19T10:32:28;98528.20;;;33.30
67822;BMP180;54434;50.096;20.082;2022-08-19T10:35:10;98521.60;;;33.30
67822;BMP180;54434;50.096;20.082;2022-08-19T10:37:49;98523.00;;;33.30
67822;BMP180;54434;50.096;20.082;2022-08-19T10:40:35;98524.20;;;33.20
67822;BMP180;54434;50.096;20.082;2022-08-19T10:43:11;98524.40;;;33.10
67822;BMP180;54434;50.096;20.082;2022-08-19T10:45:54;98517.20;;;33.10
67822;BMP180;54434;50.096;20.082;2022-08-19T10:48:34;98521.00;;;33.00
67822;BMP180;54434;50.096;20.082;2022-08-19T10:51:11;98524.80;;;32.90
67822;BMP180;54434;50.096;20.082;2022-08-19T10:54:06;98529.40;;;32.80
67822;BMP180;54434;50.096;20.082;2022-08-19T10:56:46;98528.80;;;32.78
67822;BMP180;54434;50.096;20.082;2022-08-19T10:59:32;98528.40;;;32.82
67822;BMP180;54434;50.096;20.082;2022-08-19T11:02:12;98528.00;;;32.90
67822;BMP180;54434;50.096;20.082;2022-08-19T11:04:48;98528.00;;;32.90
67822;BMP180;54434;50.096;20.082;2022-08-19T11:07:28;98535.60;;;32.90
67822;BMP180;54434;50.096;20.082;2022-08-19T11:10:05;98534.60;;;32.90
67822;BMP180;54434;50.096;20.082;2022-08-19T11:12:46;98535.00;;;32.90
67822;BMP180;54434;50.096;20.082;2022-08-19T11:15:23;98532.00;;;32.90
67822;BMP180;54434;50.096;20.082;2022-08-19T11:17:59;98526.80;;;32.90
67822;BMP180;54434;50.096;20.082;2022-08-19T11:20:35;98522.40;;;33.00
67822;BMP180;54434;50.096;20.082;2022-08-19T11:23:11;98511.00;;;33.00
67822;BMP180;54434;50.096;20.082;2022-08-19T11:25:47;98506.60;;;33.10
67822;BMP180;54434;50.096;20.082;2022-08-19T11:28:25;98501.60;;;33.10
67822;BMP180;54434;50.096;20.082;2022-08-19T11:31:01;98494.40;;;33.08
67822;BMP180;54434;50.096;20.082;2022-08-19T11:33:38;98498.60;;;33.00
67822;BMP180;54434;50.096;20.082;2022-08-19T11:36:14;98499.00;;;33.04
67822;BMP180;54434;50.096;20.082;2022-08-19T11:38:53;98497.20;;;33.10
67822;BMP180;54434;50.096;20.082;2022-08-19T11:41:29;98505.20;;;33.10
67822;BMP180;54434;50.096;20.082;2022-08-19T11:44:07;98491.80;;;33.00
67822;BMP180;54434;50.096;20.082;2022-08-19T11:46:45;98492.20;;;33.02
67822;BMP180;54434;50.096;20.082;2022-08-19T11:49:23;98489.40;;;33.04
67822;BMP180;54434;50.096;20.082;2022-08-19T11:51:59;98495.20;;;33.10
67822;BMP180;54434;50.096;20.082;2022-08-19T11:54:35;98493.00;;;33.10
67822;BMP180;54434;50.096;20.082;2022-08-19T11:57:12;98487.40;;;33.10
67822;BMP180;54434;50.096;20.082;2022-08-19T11:59:54;98483.00;;;33.20
67822;BMP180;54434;50.096;20.082;2022-08-19T12:02:31;98487.80;;;33.20
67822;BMP180;54434;50.096;20.082;2022-08-19T12:05:09;98486.00;;;33.20
67822;BMP180;54434;50.096;20.082;2022-08-19T12:07:46;98493.20;;;33.20
67822;BMP180;54434;50.096;20.082;2022-08-19T12:10:23;98493.80;;;33.20
67822;BMP180;54434;50.096;20.082;2022-08-19T12:13:00;98495.00;;;33.20
67822;BMP180;54434;50.096;20.082;2022-08-19T12:15:40;98494.80;;;33.20
67822;BMP180;54434;50.096;20.082;2022-08-19T12:18:16;98495.00;;;33.28
67822;BMP180;54434;50.096;20.082;2022-08-19T12:20:55;98497.20;;;33.30
67822;BMP180;54434;50.096;20.082;2022-08-19T12:23:31;98499.00;;;33.30
67822;BMP180;54434;50.096;20.082;2022-08-19T12:26:10;98493.00;;;33.30
67822;BMP180;54434;50.096;20.082;2022-08-19T12:28:47;98490.60;;;33.30
67822;BMP180;54434;50.096;20.082;2022-08-19T12:31:23;98491.20;;;33.30
67822;BMP180;54434;50.096;20.082;2022-08-19T12:33:59;98491.60;;;33.24
67822;BMP180;54434;50.096;20.082;2022-08-19T12:36:36;98489.00;;;33.20
67822;BMP180;54434;50.096;20.082;2022-08-19T12:39:12;98490.40;;;33.20
67822;BMP180;54434;50.096;20.082;2022-08-19T12:41:48;98488.20;;;33.20
67822;BMP180;54434;50.096;20.082;2022-08-19T12:44:28;98488.00;;;33.24
67822;BMP180;54434;50.096;20.082;2022-08-19T12:47:11;98483.20;;;33.26
67822;BMP180;54434;50.096;20.082;2022-08-19T12:49:49;98484.60;;;33.30
67822;BMP180;54434;50.096;20.082;2022-08-19T12:52:30;98483.40;;;33.30
67822;BMP180;54434;50.096;20.082;2022-08-19T12:55:09;98483.60;;;33.30
67822;BMP180;54434;50.096;20.082;2022-08-19T12:57:46;98479.00;;;33.30
67822;BMP180;54434;50.096;20.082;2022-08-19T13:00:24;98475.20;;;33.32
67822;BMP180;54434;50.096;20.082;2022-08-19T13:03:02;98470.00;;;33.36
67822;BMP180;54434;50.096;20.082;2022-08-19T13:05:38;98472.40;;;33.30
67822;BMP180;54434;50.096;20.082;2022-08-19T13:08:14;98473.20;;;33.30
67822;BMP180;54434;50.096;20.082;2022-08-19T13:10:50;98468.40;;;33.30
67822;BMP180;54434;50.096;20.082;2022-08-19T13:13:26;98469.20;;;33.30
67822;BMP180;54434;50.096;20.082;2022-08-19T13:16:04;98470.00;;;33.30
67822;BMP180;54434;50.096;20.082;2022-08-19T13:18:43;98468.20;;;33.30
67822;BMP180;54434;50.096;20.082;2022-08-19T13:21:23;98469.00;;;33.40
67822;BMP180;54434;50.096;20.082;2022-08-19T13:24:00;98468.00;;;33.40
67822;BMP180;54434;50.096;20.082;2022-08-19T13:26:36;98467.40;;;33.40
67822;BMP180;54434;50.096;20.082;2022-08-19T13:29:12;98467.20;;;33.40
67822;BMP180;54434;50.096;20.082;2022-08-19T13:32:09;98470.20;;;33.40
67822;BMP180;54434;50.096;20.082;2022-08-19T13:35:04;98467.60;;;33.40
67822;BMP180;54434;50.096;20.082;2022-08-19T13:37:40;98465.80;;;33.40
67822;BMP180;54434;50.096;20.082;2022-08-19T13:40:23;98464.20;;;33.40
67822;BMP180;54434;50.096;20.082;2022-08-19T13:43:02;98467.80;;;33.40
67822;BMP180;54434;50.096;20.082;2022-08-19T13:45:57;98464.00;;;33.40
67822;BMP180;54434;50.096;20.082;2022-08-19T13:48:33;98461.60;;;33.40
67822;BMP180;54434;50.096;20.082;2022-08-19T13:51:10;98455.20;;;33.40
67822;BMP180;54434;50.096;20.082;2022-08-19T13:53:47;98458.20;;;33.40
67822;BMP180;54434;50.096;20.082;2022-08-19T13:56:23;98451.60;;;33.34
67822;BMP180;54434;50.096;20.082;2022-08-19T13:59:00;98455.80;;;33.30
67822;BMP180;54434;50.096;20.082;2022-08-19T14:01:36;98453.60;;;33.30
67822;BMP180;54434;50.096;20.082;2022-08-19T14:04:12;98452.40;;;33.30
67822;BMP180;54434;50.096;20.082;2022-08-19T14:06:48;98454.60;;;33.20
67822;BMP180;54434;50.096;20.082;2022-08-19T14:09:24;98452.40;;;33.20
67822;BMP180;54434;50.096;20.082;2022-08-19T14:12:01;98439.80;;;33.20
67822;BMP180;54434;50.096;20.082;2022-08-19T14:14:39;98440.20;;;33.10
67822;BMP180;54434;50.096;20.082;2022-08-19T14:17:15;98436.00;;;33.10
67822;BMP180;54434;50.096;20.082;2022-08-19T14:19:57;98431.40;;;33.08
67822;BMP180;54434;50.096;20.082;2022-08-19T14:22:46;98432.60;;;33.00
67822;BMP180;54434;50.096;20.082;2022-08-19T14:25:27;98432.40;;;33.00
67822;BMP180;54434;50.096;20.082;2022-08-19T14:28:03;98432.40;;;33.00
67822;BMP180;54434;50.096;20.082;2022-08-19T14:30:38;98432.20;;;33.00
67822;BMP180;54434;50.096;20.082;2022-08-19T14:33:13;98426.60;;;33.00
67822;BMP180;54434;50.096;20.082;2022-08-19T14:35:47;98422.20;;;33.00
67822;BMP180;54434;50.096;20.082;2022-08-19T14:38:21;98419.60;;;33.00
67822;BMP180;54434;50.096;20.082;2022-08-19T14:41:16;98420.20;;;33.00
67822;BMP180;54434;50.096;20.082;2022-08-19T14:43:52;98413.20;;;33.00
67822;BMP180;54434;50.096;20.082;2022-08-19T14:46:28;98421.00;;;32.94
67822;BMP180;54434;50.096;20.082;2022-08-19T14:49:03;98418.20;;;32.90
67822;BMP180;54434;50.096;20.082;2022-08-19T14:51:41;98419.60;;;32.90
67822;BMP180;54434;50.096;20.082;2022-08-19T14:54:16;98419.60;;;32.82
67822;BMP180;54434;50.096;20.082;2022-08-19T14:56:51;98421.00;;;32.80
67822;BMP180;54434;50.096;20.082;2022-08-19T14:59:26;98426.80;;;32.80
67822;BMP180;54434;50.096;20.082;2022-08-19T15:02:00;98429.40;;;32.80
67822;BMP180;54434;50.096;20.082;2022-08-19T15:04:55;98432.20;;;32.74